createdAt,value
2022-12-06T00:00:08.505Z,16.40
2022-12-06T00:00:20.557Z,16.40
2022-12-06T00:00:32.471Z,16.30
2022-12-06T00:00:44.364Z,15.88
2022-12-06T00:00:56.418Z,15.85
2022-12-06T00:01:13.747Z,15.85
2022-12-06T00:01:34.759Z,16.00
2022-12-06T00:01:46.794Z,15.68
2022-12-06T00:01:58.811Z,15.52
2022-12-06T00:02:10.765Z,15.68
2022-12-06T00:02:22.779Z,15.93
2022-12-06T00:02:34.817Z,16.17
2022-12-06T00:02:46.842Z,15.90
2022-12-06T00:02:58.692Z,16.35
2022-12-06T00:03:10.769Z,16.52
2022-12-06T00:03:22.815Z,16.33
2022-12-06T00:03:34.999Z,16.05
2022-12-06T00:03:48.183Z,15.52
2022-12-06T00:04:04.018Z,16.06
2022-12-06T00:04:16.952Z,17.73
2022-12-06T00:04:28.812Z,17.08
2022-12-06T00:04:40.644Z,16.23
2022-12-06T00:04:52.458Z,16.33
2022-12-06T00:05:04.738Z,16.17
2022-12-06T00:05:16.684Z,16.17
2022-12-06T00:05:28.543Z,16.17
2022-12-06T00:05:45.940Z,15.07
2022-12-06T00:06:07.257Z,15.35
2022-12-06T00:06:20.772Z,16.33
2022-12-06T00:06:33.998Z,16.13
2022-12-06T00:06:48.133Z,16.65
2022-12-06T00:07:00.079Z,15.98
2022-12-06T00:07:13.138Z,16.10
2022-12-06T00:07:24.973Z,16.27
2022-12-06T00:07:36.923Z,16.33
2022-12-06T00:07:50.119Z,16.50
2022-12-06T00:08:02.354Z,16.27
2022-12-06T00:08:14.426Z,16.45
2022-12-06T00:08:26.267Z,15.88
2022-12-06T00:08:38.581Z,15.80
2022-12-06T00:08:51.274Z,16.08
2022-12-06T00:09:03.427Z,16.15
2022-12-06T00:09:20.912Z,16.33
2022-12-06T00:09:32.975Z,16.27
2022-12-06T00:09:44.809Z,16.65
2022-12-06T00:09:57.016Z,16.80
2022-12-06T00:10:09.342Z,16.63
2022-12-06T00:10:21.253Z,15.60
2022-12-06T00:10:36.281Z,15.00
2022-12-06T00:10:48.209Z,15.23
2022-12-06T00:11:08.583Z,15.25
2022-12-06T00:11:26.477Z,15.23
2022-12-06T00:11:38.448Z,16.85
2022-12-06T00:11:50.575Z,17.23
2022-12-06T00:12:02.452Z,16.63
2022-12-06T00:12:14.326Z,16.08
2022-12-06T00:12:26.933Z,15.96
2022-12-06T00:12:38.808Z,16.08
2022-12-06T00:12:50.701Z,15.90
2022-12-06T00:13:04.717Z,16.95
2022-12-06T00:13:16.533Z,16.80
2022-12-06T00:13:28.406Z,15.73
2022-12-06T00:13:40.492Z,15.85
2022-12-06T00:13:54.296Z,16.95
2022-12-06T00:14:07.127Z,18.05
2022-12-06T00:14:19.192Z,17.70
2022-12-06T00:14:31.153Z,16.92
2022-12-06T00:14:43.041Z,17.23
2022-12-06T00:14:54.901Z,16.67
2022-12-06T00:15:07.493Z,16.77
2022-12-06T00:15:19.383Z,17.08
2022-12-06T00:15:34.576Z,17.80
2022-12-06T00:15:46.473Z,17.30
2022-12-06T00:16:04.892Z,16.83
2022-12-06T00:16:17.156Z,17.13
2022-12-06T00:16:29.394Z,16.58
2022-12-06T00:16:41.360Z,17.17
2022-12-06T00:16:53.568Z,17.10
2022-12-06T00:17:05.514Z,16.10
2022-12-06T00:17:17.371Z,15.60
2022-12-06T00:17:29.215Z,15.23
2022-12-06T00:17:43.129Z,16.13
2022-12-06T00:17:55.533Z,17.20
2022-12-06T00:18:07.540Z,17.27
2022-12-06T00:18:19.532Z,16.17
2022-12-06T00:18:32.806Z,15.73
2022-12-06T00:18:45.854Z,15.02
2022-12-06T00:18:58.068Z,15.48
2022-12-06T00:19:13.113Z,16.58
2022-12-06T00:19:25.097Z,16.50
2022-12-06T00:19:36.969Z,16.33
2022-12-06T00:19:48.857Z,16.00
2022-12-06T00:20:00.911Z,15.50
2022-12-06T00:20:13.028Z,14.88
2022-12-06T00:20:24.894Z,14.73
2022-12-06T00:20:36.928Z,15.25
2022-12-06T00:20:48.801Z,15.55
2022-12-06T00:21:14.303Z,16.02
2022-12-06T00:21:28.732Z,15.00
2022-12-06T00:21:40.746Z,15.13
2022-12-06T00:21:52.732Z,15.63
2022-12-06T00:22:04.641Z,15.48
2022-12-06T00:22:16.662Z,14.48
2022-12-06T00:22:28.533Z,15.35
2022-12-06T00:22:45.246Z,16.27
2022-12-06T00:22:57.282Z,15.93
2022-12-06T00:23:09.340Z,15.90
2022-12-06T00:23:21.305Z,15.70
2022-12-06T00:23:39.838Z,16.17
2022-12-06T00:24:00.700Z,17.20
2022-12-06T00:24:18.050Z,16.08
2022-12-06T00:24:29.915Z,15.10
2022-12-06T00:24:41.786Z,15.55
2022-12-06T00:24:53.588Z,15.98
2022-12-06T00:25:05.923Z,15.38
2022-12-06T00:25:17.827Z,15.48
2022-12-06T00:25:29.807Z,15.90
2022-12-06T00:25:41.670Z,15.90
2022-12-06T00:25:53.528Z,15.27
2022-12-06T00:26:06.497Z,15.38
2022-12-06T00:26:18.612Z,15.05
2022-12-06T00:26:30.526Z,15.30
2022-12-06T00:26:45.082Z,15.27
2022-12-06T00:26:56.970Z,15.10
2022-12-06T00:27:08.964Z,15.32
2022-12-06T00:27:20.871Z,15.18
2022-12-06T00:27:32.700Z,15.80
2022-12-06T00:27:44.606Z,16.60
2022-12-06T00:27:56.501Z,16.00
2022-12-06T00:28:08.441Z,15.68
2022-12-06T00:28:20.341Z,15.40
2022-12-06T00:28:33.280Z,15.15
2022-12-06T00:28:45.549Z,15.68
2022-12-06T00:28:59.448Z,16.08
2022-12-06T00:29:16.853Z,15.65
2022-12-06T00:29:28.749Z,16.20
2022-12-06T00:29:40.674Z,16.52
2022-12-06T00:29:52.493Z,16.38
2022-12-06T00:30:05.243Z,16.33
2022-12-06T00:30:17.519Z,16.60
2022-12-06T00:30:29.364Z,16.88
2022-12-06T00:30:41.202Z,17.17
2022-12-06T00:30:58.072Z,16.80
2022-12-06T00:31:18.802Z,16.13
2022-12-06T00:31:31.174Z,17.33
2022-12-06T00:31:43.161Z,16.90
2022-12-06T00:31:55.143Z,16.17
2022-12-06T00:32:07.084Z,14.73
2022-12-06T00:32:19.885Z,14.48
2022-12-06T00:32:31.871Z,15.23
2022-12-06T00:32:43.844Z,16.80
2022-12-06T00:32:55.729Z,16.27
2022-12-06T00:33:07.598Z,15.73
2022-12-06T00:33:19.455Z,15.32
2022-12-06T00:33:31.532Z,16.40
2022-12-06T00:33:43.583Z,16.25
2022-12-06T00:33:55.873Z,15.15
2022-12-06T00:34:07.837Z,14.90
2022-12-06T00:34:20.068Z,14.73
2022-12-06T00:34:31.878Z,15.25
2022-12-06T00:34:43.746Z,15.85
2022-12-06T00:34:55.572Z,16.20
2022-12-06T00:35:07.680Z,16.73
2022-12-06T00:35:19.495Z,16.45
2022-12-06T00:35:31.381Z,16.40
2022-12-06T00:35:43.218Z,16.00
2022-12-06T00:36:00.321Z,15.45
2022-12-06T00:36:24.158Z,15.50
2022-12-06T00:36:38.206Z,15.60
2022-12-06T00:36:50.144Z,15.38
2022-12-06T00:37:02.027Z,15.57
2022-12-06T00:37:13.884Z,15.13
2022-12-06T00:37:25.793Z,14.60
2022-12-06T00:37:37.749Z,14.60
2022-12-06T00:37:49.705Z,15.35
2022-12-06T00:38:01.633Z,15.75
2022-12-06T00:38:13.529Z,15.75
2022-12-06T00:38:26.139Z,15.63
2022-12-06T00:38:38.087Z,15.95
2022-12-06T00:38:50.233Z,16.10
2022-12-06T00:39:05.388Z,16.08
2022-12-06T00:39:17.691Z,16.02
2022-12-06T00:39:29.652Z,15.80
2022-12-06T00:39:41.485Z,15.32
2022-12-06T00:39:53.330Z,14.90
2022-12-06T00:40:06.099Z,15.27
2022-12-06T00:40:18.065Z,15.55
2022-12-06T00:40:29.919Z,15.65
2022-12-06T00:40:41.779Z,16.10
2022-12-06T00:41:04.767Z,17.13
2022-12-06T00:41:21.947Z,15.50
2022-12-06T00:41:34.054Z,15.93
2022-12-06T00:41:46.396Z,16.52
2022-12-06T00:41:58.214Z,17.23
2022-12-06T00:42:10.106Z,16.45
2022-12-06T00:42:21.951Z,16.60
2022-12-06T00:42:34.091Z,16.10
2022-12-06T00:42:45.969Z,17.05
2022-12-06T00:42:57.789Z,17.55
2022-12-06T00:43:09.756Z,18.15
2022-12-06T00:43:21.743Z,18.10
2022-12-06T00:43:34.021Z,17.63
2022-12-06T00:43:46.278Z,17.20
2022-12-06T00:43:58.175Z,16.13
2022-12-06T00:44:10.655Z,15.73
2022-12-06T00:44:22.540Z,15.57
2022-12-06T00:44:34.498Z,15.77
2022-12-06T00:44:46.339Z,16.05
2022-12-06T00:44:58.198Z,17.20
2022-12-06T00:45:10.360Z,17.75
2022-12-06T00:45:22.326Z,17.45
2022-12-06T00:45:34.225Z,17.30
2022-12-06T00:45:46.266Z,17.25
2022-12-06T00:45:58.241Z,16.83
2022-12-06T00:46:17.375Z,16.77
2022-12-06T00:46:30.973Z,17.35
2022-12-06T00:46:42.890Z,16.75
2022-12-06T00:46:54.805Z,16.85
2022-12-06T00:47:06.702Z,16.65
2022-12-06T00:47:18.626Z,16.50
2022-12-06T00:47:30.507Z,16.30
2022-12-06T00:47:42.368Z,16.73
2022-12-06T00:47:54.187Z,17.45
2022-12-06T00:48:06.221Z,17.55
2022-12-06T00:48:18.109Z,16.58
2022-12-06T00:48:29.971Z,16.35
2022-12-06T00:48:41.880Z,16.30
2022-12-06T00:48:54.863Z,16.65
2022-12-06T00:49:07.124Z,16.35
2022-12-06T00:49:19.071Z,16.60
2022-12-06T00:49:30.897Z,16.38
2022-12-06T00:49:42.794Z,15.80
2022-12-06T00:49:54.693Z,16.13
2022-12-06T00:50:07.812Z,16.32
2022-12-06T00:50:19.648Z,16.42
2022-12-06T00:50:31.512Z,15.93
2022-12-06T00:50:43.324Z,15.60
2022-12-06T00:50:55.251Z,16.75
2022-12-06T00:51:07.181Z,16.92
2022-12-06T00:51:19.586Z,16.75
2022-12-06T00:51:32.674Z,16.13
2022-12-06T00:51:44.672Z,16.05
2022-12-06T00:51:56.972Z,15.77
2022-12-06T00:52:09.544Z,15.40
2022-12-06T00:52:21.640Z,16.75
2022-12-06T00:52:34.524Z,17.45
2022-12-06T00:52:46.958Z,16.80
2022-12-06T00:52:58.792Z,17.27
2022-12-06T00:53:10.718Z,17.63
2022-12-06T00:53:23.036Z,16.25
2022-12-06T00:53:36.049Z,15.82
2022-12-06T00:53:48.241Z,16.15
2022-12-06T00:54:00.347Z,16.90
2022-12-06T00:54:14.442Z,16.65
2022-12-06T00:54:26.305Z,16.15
2022-12-06T00:54:38.118Z,16.48
2022-12-06T00:54:50.023Z,17.13
2022-12-06T00:55:01.938Z,16.73
2022-12-06T00:55:13.925Z,16.25
2022-12-06T00:55:25.758Z,16.67
2022-12-06T00:55:37.643Z,16.65
2022-12-06T00:55:49.831Z,16.42
2022-12-06T00:56:01.745Z,17.00
2022-12-06T00:56:13.788Z,17.10
2022-12-06T00:56:25.999Z,17.52
2022-12-06T00:56:37.997Z,16.70
2022-12-06T00:56:50.059Z,16.48
2022-12-06T00:57:01.969Z,16.63
2022-12-06T00:57:13.834Z,16.92
2022-12-06T00:57:25.660Z,17.05
2022-12-06T00:57:37.507Z,16.23
2022-12-06T00:57:49.410Z,16.95
2022-12-06T00:58:01.262Z,16.98
2022-12-06T00:58:13.217Z,16.98
2022-12-06T00:58:25.188Z,16.75
2022-12-06T00:58:37.151Z,16.75
2022-12-06T00:58:49.005Z,16.67
2022-12-06T00:59:00.839Z,16.40
2022-12-06T00:59:12.718Z,17.40
2022-12-06T00:59:24.549Z,16.90
2022-12-06T00:59:36.459Z,17.33
2022-12-06T00:59:48.291Z,16.70
2022-12-06T01:00:00.383Z,16.55
2022-12-06T01:00:13.363Z,16.00
2022-12-06T01:00:25.242Z,16.23
2022-12-06T01:00:37.245Z,16.90
2022-12-06T01:00:49.174Z,17.54
2022-12-06T01:01:16.211Z,16.75
2022-12-06T01:01:33.353Z,16.30
2022-12-06T01:01:45.349Z,16.88
2022-12-06T01:01:57.326Z,16.88
2022-12-06T01:02:09.585Z,16.27
2022-12-06T01:02:21.436Z,15.55
2022-12-06T01:02:33.281Z,15.18
2022-12-06T01:02:45.154Z,15.73
2022-12-06T01:02:58.445Z,15.88
2022-12-06T01:03:10.568Z,17.15
2022-12-06T01:03:22.903Z,17.38
2022-12-06T01:03:35.363Z,17.00
2022-12-06T01:03:51.457Z,16.83
2022-12-06T01:04:05.232Z,16.42
2022-12-06T01:04:17.048Z,15.38
2022-12-06T01:04:28.889Z,15.65
2022-12-06T01:04:40.692Z,17.05
2022-12-06T01:04:52.507Z,16.95
2022-12-06T01:05:04.840Z,16.42
2022-12-06T01:05:16.875Z,16.65
2022-12-06T01:05:28.910Z,17.50
2022-12-06T01:05:42.308Z,18.15
2022-12-06T01:05:54.126Z,17.58
2022-12-06T01:06:08.801Z,17.25
2022-12-06T01:06:23.022Z,17.38
2022-12-06T01:06:35.864Z,17.55
2022-12-06T01:06:47.750Z,17.77
2022-12-06T01:07:00.273Z,18.85
2022-12-06T01:07:12.122Z,17.92
2022-12-06T01:07:23.982Z,17.92
2022-12-06T01:07:35.849Z,17.77
2022-12-06T01:07:47.791Z,17.77
2022-12-06T01:07:59.704Z,17.65
2022-12-06T01:08:12.110Z,16.60
2022-12-06T01:08:24.035Z,16.38
2022-12-06T01:08:36.403Z,15.90
2022-12-06T01:08:48.444Z,16.42
2022-12-06T01:09:05.268Z,17.88
2022-12-06T01:09:17.201Z,18.02
2022-12-06T01:09:31.011Z,16.88
2022-12-06T01:09:42.899Z,17.25
2022-12-06T01:09:54.717Z,17.73
2022-12-06T01:10:07.601Z,17.88
2022-12-06T01:10:19.557Z,16.15
2022-12-06T01:10:31.477Z,15.70
2022-12-06T01:10:52.877Z,16.52
2022-12-06T01:11:05.044Z,18.73
2022-12-06T01:11:16.916Z,17.63
2022-12-06T01:11:29.017Z,17.55
2022-12-06T01:11:40.941Z,16.52
2022-12-06T01:11:52.785Z,16.38
2022-12-06T01:12:04.678Z,17.05
2022-12-06T01:12:16.466Z,17.20
2022-12-06T01:12:28.266Z,17.02
2022-12-06T01:12:40.341Z,16.13
2022-12-06T01:12:52.120Z,16.35
2022-12-06T01:13:04.430Z,16.70
2022-12-06T01:13:16.161Z,16.92
2022-12-06T01:13:28.273Z,16.55
2022-12-06T01:13:40.060Z,16.75
2022-12-06T01:13:52.112Z,16.67
2022-12-06T01:14:03.974Z,16.83
2022-12-06T01:14:15.760Z,16.33
2022-12-06T01:14:27.497Z,16.25
2022-12-06T01:14:39.276Z,16.35
2022-12-06T01:14:50.973Z,16.10
2022-12-06T01:15:02.800Z,16.68
2022-12-06T01:15:14.810Z,16.50
2022-12-06T01:15:26.555Z,16.42
2022-12-06T01:15:38.363Z,16.38
2022-12-06T01:15:50.183Z,16.88
2022-12-06T01:16:12.720Z,16.88
2022-12-06T01:16:27.712Z,16.60
2022-12-06T01:16:39.628Z,16.08
2022-12-06T01:16:51.524Z,16.33
2022-12-06T01:17:03.441Z,17.23
2022-12-06T01:17:15.300Z,17.33
2022-12-06T01:17:27.052Z,17.05
2022-12-06T01:17:38.882Z,16.55
2022-12-06T01:17:50.709Z,17.10
2022-12-06T01:18:03.019Z,16.67
2022-12-06T01:18:14.870Z,17.10
2022-12-06T01:18:26.601Z,17.80
2022-12-06T01:18:38.972Z,17.13
2022-12-06T01:18:56.763Z,16.65
2022-12-06T01:19:08.565Z,16.45
2022-12-06T01:19:20.361Z,16.50
2022-12-06T01:19:32.123Z,16.15
2022-12-06T01:19:43.922Z,15.73
2022-12-06T01:19:55.720Z,16.33
2022-12-06T01:20:08.218Z,16.13
2022-12-06T01:20:20.097Z,16.00
2022-12-06T01:20:31.924Z,15.95
2022-12-06T01:20:43.715Z,16.92
2022-12-06T01:20:55.505Z,16.98
2022-12-06T01:21:08.887Z,17.40
2022-12-06T01:21:21.062Z,17.30
2022-12-06T01:21:32.888Z,16.80
2022-12-06T01:21:44.671Z,16.88
2022-12-06T01:21:56.387Z,16.67
2022-12-06T01:22:08.151Z,17.23
2022-12-06T01:22:20.013Z,16.83
2022-12-06T01:22:31.823Z,16.77
2022-12-06T01:22:43.624Z,15.75
2022-12-06T01:22:55.327Z,16.92
2022-12-06T01:23:07.230Z,17.48
2022-12-06T01:23:19.055Z,16.67
2022-12-06T01:23:30.856Z,16.70
2022-12-06T01:23:43.689Z,17.38
2022-12-06T01:23:55.513Z,17.90
2022-12-06T01:24:07.680Z,17.88
2022-12-06T01:24:19.419Z,17.80
2022-12-06T01:24:31.330Z,17.35
2022-12-06T01:24:43.136Z,16.67
2022-12-06T01:24:54.982Z,16.15
2022-12-06T01:25:07.025Z,16.83
2022-12-06T01:25:18.744Z,17.40
2022-12-06T01:25:35.774Z,16.55
2022-12-06T01:25:53.940Z,15.63
2022-12-06T01:26:06.402Z,16.10
2022-12-06T01:26:27.322Z,17.25
2022-12-06T01:26:39.084Z,17.00
2022-12-06T01:26:50.847Z,16.50
2022-12-06T01:27:02.611Z,16.85
2022-12-06T01:27:14.500Z,16.35
2022-12-06T01:27:26.509Z,16.65
2022-12-06T01:27:38.260Z,16.67
2022-12-06T01:27:50.085Z,16.80
2022-12-06T01:28:01.882Z,17.02
2022-12-06T01:28:13.642Z,17.45
2022-12-06T01:28:25.585Z,17.10
2022-12-06T01:28:37.391Z,16.60
2022-12-06T01:28:49.200Z,16.92
2022-12-06T01:29:01.218Z,16.92
2022-12-06T01:29:13.061Z,16.13
2022-12-06T01:29:24.783Z,15.63
2022-12-06T01:29:36.676Z,16.17
2022-12-06T01:29:48.475Z,15.95
2022-12-06T01:30:00.513Z,16.94
2022-12-06T01:30:12.657Z,16.83
2022-12-06T01:30:24.507Z,15.60
2022-12-06T01:30:39.637Z,15.57
2022-12-06T01:30:51.441Z,17.20
2022-12-06T01:31:07.857Z,17.63
2022-12-06T01:31:20.099Z,16.83
2022-12-06T01:31:37.560Z,16.58
2022-12-06T01:31:50.555Z,15.35
2022-12-06T01:32:02.357Z,15.55
2022-12-06T01:32:14.401Z,16.38
2022-12-06T01:32:26.598Z,17.00
2022-12-06T01:32:38.350Z,16.88
2022-12-06T01:32:50.208Z,17.15
2022-12-06T01:33:02.041Z,16.58
2022-12-06T01:33:13.783Z,15.63
2022-12-06T01:33:25.688Z,15.40
2022-12-06T01:33:37.473Z,15.05
2022-12-06T01:33:49.239Z,15.35
2022-12-06T01:34:01.436Z,15.45
2022-12-06T01:34:16.938Z,15.85
2022-12-06T01:34:28.781Z,16.23
2022-12-06T01:34:40.572Z,15.55
2022-12-06T01:34:52.806Z,15.43
2022-12-06T01:35:05.255Z,15.70
2022-12-06T01:35:17.346Z,15.80
2022-12-06T01:35:29.159Z,15.65
2022-12-06T01:35:41.951Z,16.18
2022-12-06T01:35:53.672Z,16.73
2022-12-06T01:36:05.914Z,15.90
2022-12-06T01:36:19.738Z,15.73
2022-12-06T01:36:31.734Z,16.38
2022-12-06T01:36:43.957Z,16.30
2022-12-06T01:36:55.786Z,16.20
2022-12-06T01:37:07.618Z,15.88
2022-12-06T01:37:19.627Z,15.85
2022-12-06T01:37:31.386Z,16.27
2022-12-06T01:37:43.185Z,16.15
2022-12-06T01:37:55.025Z,15.88
2022-12-06T01:38:07.383Z,15.65
2022-12-06T01:38:19.141Z,16.30
2022-12-06T01:38:31.003Z,16.08
2022-12-06T01:38:42.771Z,16.58
2022-12-06T01:38:57.214Z,16.67
2022-12-06T01:39:10.757Z,15.85
2022-12-06T01:39:22.755Z,16.30
2022-12-06T01:39:34.554Z,16.83
2022-12-06T01:39:46.325Z,17.58
2022-12-06T01:39:58.319Z,17.35
2022-12-06T01:40:12.210Z,17.10
2022-12-06T01:40:23.970Z,17.30
2022-12-06T01:40:46.742Z,17.05
2022-12-06T01:40:58.497Z,17.45
2022-12-06T01:41:10.343Z,17.38
2022-12-06T01:41:24.120Z,16.40
2022-12-06T01:41:36.722Z,15.70
2022-12-06T01:41:48.544Z,15.85
2022-12-06T01:42:00.353Z,15.68
2022-12-06T01:42:12.967Z,15.63
2022-12-06T01:42:24.771Z,16.38
2022-12-06T01:42:36.531Z,16.13
2022-12-06T01:42:48.349Z,16.15
2022-12-06T01:43:00.116Z,16.42
2022-12-06T01:43:42.262Z,16.40
2022-12-06T01:43:54.907Z,17.35
2022-12-06T01:44:07.008Z,16.15
2022-12-06T01:44:58.242Z,15.25
2022-12-06T01:45:10.639Z,16.60
2022-12-06T01:45:22.417Z,17.10
2022-12-06T01:45:34.240Z,18.52
2022-12-06T01:45:46.125Z,17.65
2022-12-06T01:45:59.655Z,16.70
2022-12-06T01:46:44.346Z,16.88
2022-12-06T01:46:56.075Z,16.35
2022-12-06T01:47:38.125Z,16.73
2022-12-06T01:47:50.142Z,16.65
2022-12-06T01:48:01.917Z,17.05
2022-12-06T01:48:13.701Z,16.67
2022-12-06T01:48:26.073Z,16.27
2022-12-06T01:48:37.922Z,16.63
2022-12-06T01:48:51.810Z,17.73
2022-12-06T01:49:12.606Z,17.38
2022-12-06T01:49:27.690Z,17.58
2022-12-06T01:49:39.489Z,18.35
2022-12-06T01:50:06.791Z,17.88
2022-12-06T01:50:27.851Z,17.30
2022-12-06T01:50:40.243Z,16.73
2022-12-06T01:50:53.360Z,16.90
2022-12-06T01:51:05.317Z,17.02
2022-12-06T01:51:17.162Z,16.63
2022-12-06T01:51:29.009Z,16.83
2022-12-06T01:51:47.832Z,16.85
2022-12-06T01:52:03.918Z,16.27
2022-12-06T01:52:15.662Z,16.83
2022-12-06T01:52:35.059Z,16.92
2022-12-06T01:52:53.688Z,16.45
2022-12-06T01:53:07.180Z,15.95
2022-12-06T01:53:25.291Z,15.77
2022-12-06T01:53:37.449Z,16.02
2022-12-06T01:53:49.258Z,16.15
2022-12-06T01:54:01.713Z,15.80
2022-12-06T01:54:14.793Z,15.20
2022-12-06T01:54:26.575Z,15.68
2022-12-06T01:54:38.361Z,16.27
2022-12-06T01:54:50.224Z,16.17
2022-12-06T01:55:02.070Z,16.15
2022-12-06T01:55:13.907Z,15.90
2022-12-06T01:55:27.815Z,15.50
2022-12-06T01:55:39.593Z,15.65
2022-12-06T01:55:51.730Z,16.58
2022-12-06T01:56:03.726Z,16.95
2022-12-06T01:56:15.641Z,16.65
2022-12-06T01:56:27.368Z,16.95
2022-12-06T01:56:39.657Z,16.63
2022-12-06T01:56:52.106Z,17.45
2022-12-06T01:57:04.985Z,17.38
2022-12-06T01:57:16.985Z,17.63
2022-12-06T01:57:28.856Z,17.10
2022-12-06T01:57:40.708Z,16.95
2022-12-06T01:57:52.623Z,15.80
2022-12-06T01:58:17.888Z,15.95
2022-12-06T01:58:33.968Z,16.02
2022-12-06T01:58:45.796Z,16.45
2022-12-06T01:58:58.018Z,17.20
2022-12-06T01:59:11.489Z,17.33
2022-12-06T01:59:23.330Z,16.30
2022-12-06T01:59:35.113Z,15.82
2022-12-06T01:59:46.980Z,15.32
2022-12-06T01:59:58.957Z,14.90
2022-12-06T02:00:11.392Z,15.63
2022-12-06T02:00:23.273Z,16.20
2022-12-06T02:00:35.112Z,16.23
2022-12-06T02:00:46.897Z,16.35
2022-12-06T02:00:58.676Z,16.15
2022-12-06T02:01:10.624Z,16.20
2022-12-06T02:01:22.617Z,17.13
2022-12-06T02:01:34.654Z,17.10
2022-12-06T02:01:46.576Z,16.38
2022-12-06T02:01:58.480Z,16.73
2022-12-06T02:02:10.562Z,16.35
2022-12-06T02:02:22.576Z,16.38
2022-12-06T02:02:34.608Z,15.88
2022-12-06T02:02:46.484Z,15.43
2022-12-06T02:02:58.373Z,15.52
2022-12-06T02:03:14.194Z,15.60
2022-12-06T02:03:28.487Z,15.43
2022-12-06T02:03:40.325Z,15.55
2022-12-06T02:03:52.047Z,15.90
2022-12-06T02:04:03.959Z,16.27
2022-12-06T02:04:16.853Z,15.38
2022-12-06T02:04:29.397Z,14.88
2022-12-06T02:04:41.142Z,15.40
2022-12-06T02:04:52.929Z,16.40
2022-12-06T02:05:05.049Z,16.55
2022-12-06T02:05:17.702Z,16.88
2022-12-06T02:05:29.900Z,16.33
2022-12-06T02:05:41.732Z,15.52
2022-12-06T02:05:53.597Z,16.02
2022-12-06T02:06:07.012Z,16.42
2022-12-06T02:06:18.828Z,15.43
2022-12-06T02:06:30.946Z,15.57
2022-12-06T02:06:43.159Z,15.80
2022-12-06T02:06:54.939Z,15.95
2022-12-06T02:07:06.705Z,16.17
2022-12-06T02:07:20.146Z,16.10
2022-12-06T02:07:31.947Z,16.23
2022-12-06T02:07:44.115Z,16.33
2022-12-06T02:07:56.244Z,17.95
2022-12-06T02:08:09.956Z,17.15
2022-12-06T02:08:22.018Z,16.20
2022-12-06T02:08:34.206Z,17.15
2022-12-06T02:08:46.028Z,17.45
2022-12-06T02:08:59.693Z,17.70
2022-12-06T02:09:11.650Z,16.83
2022-12-06T02:09:23.526Z,16.42
2022-12-06T02:09:35.483Z,16.33
2022-12-06T02:09:47.932Z,16.92
2022-12-06T02:09:59.867Z,17.05
2022-12-06T02:10:11.930Z,16.95
2022-12-06T02:10:23.690Z,16.27
2022-12-06T02:10:36.491Z,16.20
2022-12-06T02:10:48.293Z,16.35
2022-12-06T02:11:01.838Z,16.05
2022-12-06T02:11:13.718Z,16.15
2022-12-06T02:11:26.802Z,16.63
2022-12-06T02:11:41.634Z,16.67
2022-12-06T02:11:53.441Z,16.00
2022-12-06T02:12:14.770Z,15.35
2022-12-06T02:12:26.518Z,15.43
2022-12-06T02:12:38.230Z,15.63
2022-12-06T02:12:52.430Z,16.30
2022-12-06T02:13:04.172Z,16.52
2022-12-06T02:13:15.913Z,15.88
2022-12-06T02:13:27.702Z,15.85
2022-12-06T02:13:39.520Z,16.38
2022-12-06T02:13:51.373Z,16.30
2022-12-06T02:14:04.992Z,15.85
2022-12-06T02:14:22.599Z,15.63
2022-12-06T02:14:35.394Z,15.63
2022-12-06T02:14:50.411Z,15.60
2022-12-06T02:15:02.177Z,15.75
2022-12-06T02:15:13.958Z,15.65
2022-12-06T02:15:50.128Z,15.15
2022-12-06T02:16:32.717Z,15.60
2022-12-06T02:17:39.028Z,15.05
2022-12-06T02:17:58.676Z,15.48
2022-12-06T02:18:15.827Z,14.93
2022-12-06T02:19:20.915Z,15.32
2022-12-06T02:19:41.339Z,16.80
2022-12-06T02:19:59.531Z,15.32
2022-12-06T02:20:32.919Z,15.40
2022-12-06T02:20:57.351Z,16.35
2022-12-06T02:21:49.250Z,16.35
2022-12-06T02:22:33.180Z,15.27
2022-12-06T02:23:34.444Z,15.20
2022-12-06T02:24:13.481Z,14.60
2022-12-06T02:25:42.063Z,14.88
2022-12-06T02:26:50.432Z,15.60
2022-12-06T02:27:27.352Z,16.17
2022-12-06T02:28:06.105Z,15.80
2022-12-06T02:28:42.984Z,16.02
2022-12-06T02:29:33.876Z,13.55
2022-12-06T02:30:10.956Z,15.07
2022-12-06T02:31:30.947Z,16.63
2022-12-06T02:32:06.995Z,14.98
2022-12-06T02:32:20.962Z,15.35
2022-12-06T02:32:54.520Z,15.85
2022-12-06T02:33:15.718Z,15.25
2022-12-06T02:34:09.783Z,14.93
2022-12-06T02:34:45.061Z,14.75
2022-12-06T02:35:06.293Z,15.55
2022-12-06T02:36:18.912Z,11.55
2022-12-06T02:37:06.280Z,14.65
2022-12-06T02:37:25.512Z,14.77
2022-12-06T02:37:52.762Z,15.82
2022-12-06T02:38:34.867Z,14.25
2022-12-06T02:38:50.734Z,14.50
2022-12-06T02:39:09.829Z,13.90
2022-12-06T02:39:35.270Z,14.70
2022-12-06T02:40:07.725Z,15.63
2022-12-06T02:40:33.705Z,15.98
2022-12-06T02:40:50.237Z,14.73
2022-12-06T02:41:08.303Z,14.90
2022-12-06T02:41:32.017Z,15.74
2022-12-06T02:42:00.674Z,15.30
2022-12-06T02:42:22.568Z,14.80
2022-12-06T02:42:56.935Z,15.07
2022-12-06T02:43:20.003Z,15.13
2022-12-06T02:43:39.875Z,15.02
2022-12-06T02:43:56.671Z,15.05
2022-12-06T02:44:13.033Z,15.15
2022-12-06T02:44:30.269Z,14.75
2022-12-06T02:44:54.732Z,14.48
2022-12-06T02:45:14.997Z,14.23
2022-12-06T02:45:30.060Z,14.93
2022-12-06T02:45:51.826Z,15.32
2022-12-06T02:46:03.672Z,16.85
2022-12-06T02:46:17.112Z,17.15
2022-12-06T02:46:32.937Z,16.15
2022-12-06T02:46:44.723Z,16.05
2022-12-06T02:46:56.619Z,17.02
2022-12-06T02:47:09.245Z,16.55
2022-12-06T02:47:24.586Z,15.95
2022-12-06T02:47:37.092Z,15.82
2022-12-06T02:47:49.087Z,15.85
2022-12-06T02:48:02.501Z,15.25
2022-12-06T02:48:14.364Z,15.93
2022-12-06T02:48:26.104Z,17.30
2022-12-06T02:48:37.973Z,17.42
2022-12-06T02:48:50.304Z,17.90
2022-12-06T02:49:04.345Z,17.33
2022-12-06T02:49:16.195Z,17.85
2022-12-06T02:49:28.380Z,18.67
2022-12-06T02:49:44.968Z,18.35
2022-12-06T02:49:57.025Z,17.23
2022-12-06T02:50:16.612Z,16.65
2022-12-06T02:50:40.145Z,17.80
2022-12-06T02:51:04.900Z,18.98
2022-12-06T02:51:17.480Z,17.95
2022-12-06T02:51:30.309Z,19.17
2022-12-06T02:51:42.094Z,21.23
2022-12-06T02:51:54.759Z,20.75
2022-12-06T02:52:06.525Z,18.67
2022-12-06T02:52:18.997Z,17.27
2022-12-06T02:52:30.831Z,17.23
2022-12-06T02:52:44.299Z,18.02
2022-12-06T02:52:56.023Z,17.80
2022-12-06T02:53:11.758Z,18.52
2022-12-06T02:53:24.072Z,18.92
2022-12-06T02:53:39.011Z,19.30
2022-12-06T02:53:52.141Z,19.77
2022-12-06T02:54:08.634Z,21.05
2022-12-06T02:54:20.460Z,22.63
2022-12-06T02:54:32.214Z,20.77
2022-12-06T02:54:45.205Z,19.00
2022-12-06T02:54:58.746Z,19.83
2022-12-06T02:55:12.061Z,19.48
2022-12-06T02:55:24.394Z,17.75
2022-12-06T02:55:36.207Z,18.27
2022-12-06T02:55:48.113Z,18.30
2022-12-06T02:55:59.861Z,18.17
2022-12-06T02:56:12.808Z,19.00
2022-12-06T02:56:24.860Z,18.55
2022-12-06T02:56:36.727Z,18.08
2022-12-06T02:56:48.554Z,18.13
2022-12-06T02:57:00.279Z,19.60
2022-12-06T02:57:12.004Z,20.55
2022-12-06T02:57:45.905Z,20.23
2022-12-06T02:57:57.725Z,19.17
2022-12-06T02:58:10.125Z,19.50
2022-12-06T02:58:21.816Z,19.83
2022-12-06T02:58:37.222Z,20.58
2022-12-06T02:58:48.970Z,21.17
2022-12-06T02:59:00.843Z,21.27
2022-12-06T02:59:12.659Z,21.65
2022-12-06T02:59:24.422Z,21.25
2022-12-06T02:59:36.168Z,20.15
2022-12-06T02:59:53.754Z,19.98
2022-12-06T03:00:40.294Z,21.08
2022-12-06T03:01:02.228Z,20.02
2022-12-06T03:01:18.620Z,20.73
2022-12-06T03:01:33.331Z,20.60
2022-12-06T03:01:49.778Z,21.17
2022-12-06T03:02:03.118Z,21.20
2022-12-06T03:02:15.095Z,21.20
2022-12-06T03:02:27.099Z,21.27
2022-12-06T03:02:39.412Z,21.85
2022-12-06T03:02:52.440Z,21.00
2022-12-06T03:03:20.817Z,20.00
2022-12-06T03:04:31.456Z,18.95
2022-12-06T03:05:03.332Z,19.33
2022-12-06T03:05:21.013Z,20.73
2022-12-06T03:06:02.226Z,20.42
2022-12-06T03:06:21.230Z,20.13
2022-12-06T03:06:44.816Z,20.05
2022-12-06T03:07:35.879Z,20.46
2022-12-06T03:07:47.773Z,20.67
2022-12-06T03:07:59.695Z,20.60
2022-12-06T03:08:21.887Z,20.73
2022-12-06T03:09:49.728Z,21.02
2022-12-06T03:10:36.019Z,20.27
2022-12-06T03:10:54.010Z,19.80
2022-12-06T03:11:05.787Z,21.50
2022-12-06T03:11:17.640Z,21.13
2022-12-06T03:11:46.989Z,20.90
2022-12-06T03:12:09.382Z,20.15
2022-12-06T03:12:28.345Z,21.27
2022-12-06T03:13:09.404Z,21.30